sensor_id;sensor_type;location;lat;lon;timestamp;temperature;humidity
4530;DHT22;2277;51.626;7.516;2024-02-14T00:00:28;9.70;99.90
4530;DHT22;2277;51.626;7.516;2024-02-14T00:02:54;9.70;99.90
4530;DHT22;2277;51.626;7.516;2024-02-14T00:05:19;9.60;99.90
4530;DHT22;2277;51.626;7.516;2024-02-14T00:07:45;9.70;99.90
4530;DHT22;2277;51.626;7.516;2024-02-14T00:10:11;9.60;99.90
4530;DHT22;2277;51.626;7.516;2024-02-14T00:12:37;9.60;99.90
4530;DHT22;2277;51.626;7.516;2024-02-14T00:15:03;9.70;99.90
4530;DHT22;2277;51.626;7.516;2024-02-14T00:17:29;9.80;99.90
4530;DHT22;2277;51.626;7.516;2024-02-14T00:19:55;9.80;99.90
4530;DHT22;2277;51.626;7.516;2024-02-14T00:22:21;9.80;99.90
4530;DHT22;2277;51.626;7.516;2024-02-14T00:24:46;9.80;99.90
4530;DHT22;2277;51.626;7.516;2024-02-14T00:27:12;9.70;99.90
4530;DHT22;2277;51.626;7.516;2024-02-14T00:29:40;9.70;99.90
4530;DHT22;2277;51.626;7.516;2024-02-14T00:32:06;9.70;99.90
4530;DHT22;2277;51.626;7.516;2024-02-14T00:34:31;9.70;99.90
4530;DHT22;2277;51.626;7.516;2024-02-14T00:36:57;9.70;99.90
4530;DHT22;2277;51.626;7.516;2024-02-14T00:39:22;9.60;99.90
4530;DHT22;2277;51.626;7.516;2024-02-14T00:41:48;9.70;99.90
4530;DHT22;2277;51.626;7.516;2024-02-14T00:44:15;9.70;99.90
4530;DHT22;2277;51.626;7.516;2024-02-14T00:46:44;9.50;99.90
4530;DHT22;2277;51.626;7.516;2024-02-14T00:49:10;9.60;99.90
4530;DHT22;2277;51.626;7.516;2024-02-14T00:51:36;9.60;99.90
4530;DHT22;2277;51.626;7.516;2024-02-14T00:54:04;9.60;99.90
4530;DHT22;2277;51.626;7.516;2024-02-14T00:56:29;9.60;99.90
4530;DHT22;2277;51.626;7.516;2024-02-14T00:58:55;9.50;99.90
4530;DHT22;2277;51.626;7.516;2024-02-14T01:01:22;9.40;99.90
4530;DHT22;2277;51.626;7.516;2024-02-14T01:03:47;9.40;99.90
4530;DHT22;2277;51.626;7.516;2024-02-14T01:06:13;9.40;99.90
4530;DHT22;2277;51.626;7.516;2024-02-14T01:08:40;9.50;99.90
4530;DHT22;2277;51.626;7.516;2024-02-14T01:11:07;9.50;99.90
4530;DHT22;2277;51.626;7.516;2024-02-14T01:13:33;9.50;99.90
4530;DHT22;2277;51.626;7.516;2024-02-14T01:15:58;9.60;99.90
4530;DHT22;2277;51.626;7.516;2024-02-14T01:18:24;9.50;99.90
4530;DHT22;2277;51.626;7.516;2024-02-14T01:20:49;9.50;99.90
4530;DHT22;2277;51.626;7.516;2024-02-14T01:23:16;9.50;99.90
4530;DHT22;2277;51.626;7.516;2024-02-14T01:25:41;9.50;99.90
4530;DHT22;2277;51.626;7.516;2024-02-14T01:28:08;9.50;99.90
4530;DHT22;2277;51.626;7.516;2024-02-14T01:30:34;9.50;99.90
4530;DHT22;2277;51.626;7.516;2024-02-14T01:33:01;9.40;99.90
4530;DHT22;2277;51.626;7.516;2024-02-14T01:35:29;9.50;99.90
4530;DHT22;2277;51.626;7.516;2024-02-14T01:37:55;9.50;99.90
4530;DHT22;2277;51.626;7.516;2024-02-14T01:40:21;9.40;99.90
4530;DHT22;2277;51.626;7.516;2024-02-14T01:42:47;9.40;99.90
4530;DHT22;2277;51.626;7.516;2024-02-14T01:45:13;9.40;99.90
4530;DHT22;2277;51.626;7.516;2024-02-14T01:47:38;9.40;99.90
4530;DHT22;2277;51.626;7.516;2024-02-14T01:50:07;9.30;99.90
4530;DHT22;2277;51.626;7.516;2024-02-14T01:52:39;9.40;99.90
4530;DHT22;2277;51.626;7.516;2024-02-14T01:55:07;9.40;99.90
4530;DHT22;2277;51.626;7.516;2024-02-14T01:57:33;9.40;99.90
4530;DHT22;2277;51.626;7.516;2024-02-14T02:00:00;9.30;99.90
4530;DHT22;2277;51.626;7.516;2024-02-14T02:02:30;9.50;99.90
4530;DHT22;2277;51.626;7.516;2024-02-14T02:04:55;9.50;99.90
4530;DHT22;2277;51.626;7.516;2024-02-14T02:07:21;9.60;99.90
4530;DHT22;2277;51.626;7.516;2024-02-14T02:09:46;9.50;99.90
4530;DHT22;2277;51.626;7.516;2024-02-14T02:12:12;9.50;99.90
4530;DHT22;2277;51.626;7.516;2024-02-14T02:14:38;9.50;99.90
4530;DHT22;2277;51.626;7.516;2024-02-14T02:17:06;9.50;99.90
4530;DHT22;2277;51.626;7.516;2024-02-14T02:19:34;9.50;99.90
4530;DHT22;2277;51.626;7.516;2024-02-14T02:22:01;9.50;99.90
4530;DHT22;2277;51.626;7.516;2024-02-14T02:24:26;9.50;99.90
4530;DHT22;2277;51.626;7.516;2024-02-14T02:26:52;9.50;99.90
4530;DHT22;2277;51.626;7.516;2024-02-14T02:29:17;9.50;99.90
4530;DHT22;2277;51.626;7.516;2024-02-14T02:31:45;9.60;99.90
4530;DHT22;2277;51.626;7.516;2024-02-14T02:34:11;9.50;99.90
4530;DHT22;2277;51.626;7.516;2024-02-14T02:36:37;9.50;99.90
4530;DHT22;2277;51.626;7.516;2024-02-14T02:39:03;9.50;99.90
4530;DHT22;2277;51.626;7.516;2024-02-14T02:41:30;9.50;99.90
4530;DHT22;2277;51.626;7.516;2024-02-14T02:43:57;9.50;99.90
4530;DHT22;2277;51.626;7.516;2024-02-14T02:46:23;9.50;99.90
4530;DHT22;2277;51.626;7.516;2024-02-14T02:48:48;9.50;99.90
4530;DHT22;2277;51.626;7.516;2024-02-14T02:51:17;9.60;99.90
4530;DHT22;2277;51.626;7.516;2024-02-14T02:53:43;9.60;99.90
4530;DHT22;2277;51.626;7.516;2024-02-14T02:56:09;9.50;99.90
4530;DHT22;2277;51.626;7.516;2024-02-14T02:58:34;9.60;99.90
4530;DHT22;2277;51.626;7.516;2024-02-14T03:01:00;9.60;99.90
4530;DHT22;2277;51.626;7.516;2024-02-14T03:03:26;9.60;99.90
4530;DHT22;2277;51.626;7.516;2024-02-14T03:05:53;9.50;99.90
4530;DHT22;2277;51.626;7.516;2024-02-14T03:08:20;9.60;99.90
4530;DHT22;2277;51.626;7.516;2024-02-14T03:10:47;9.60;99.90
4530;DHT22;2277;51.626;7.516;2024-02-14T03:13:12;9.60;99.90
4530;DHT22;2277;51.626;7.516;2024-02-14T03:15:38;9.60;99.90
4530;DHT22;2277;51.626;7.516;2024-02-14T03:18:04;9.60;99.90
4530;DHT22;2277;51.626;7.516;2024-02-14T03:20:33;9.60;99.90
4530;DHT22;2277;51.626;7.516;2024-02-14T03:22:59;9.70;99.90
4530;DHT22;2277;51.626;7.516;2024-02-14T03:25:24;9.60;99.90
4530;DHT22;2277;51.626;7.516;2024-02-14T03:27:51;9.50;99.90
4530;DHT22;2277;51.626;7.516;2024-02-14T03:30:19;9.60;99.90
4530;DHT22;2277;51.626;7.516;2024-02-14T03:32:46;9.60;99.90
4530;DHT22;2277;51.626;7.516;2024-02-14T03:35:12;9.60;99.90
4530;DHT22;2277;51.626;7.516;2024-02-14T03:37:40;9.70;99.90
4530;DHT22;2277;51.626;7.516;2024-02-14T03:40:06;9.70;99.90
4530;DHT22;2277;51.626;7.516;2024-02-14T03:42:33;9.70;99.90
4530;DHT22;2277;51.626;7.516;2024-02-14T03:44:59;9.50;99.90
4530;DHT22;2277;51.626;7.516;2024-02-14T03:47:31;9.60;99.90
4530;DHT22;2277;51.626;7.516;2024-02-14T03:50:00;9.60;99.90
4530;DHT22;2277;51.626;7.516;2024-02-14T03:52:27;9.50;99.90
4530;DHT22;2277;51.626;7.516;2024-02-14T03:54:53;9.60;99.90
4530;DHT22;2277;51.626;7.516;2024-02-14T03:57:19;9.60;99.90
4530;DHT22;2277;51.626;7.516;2024-02-14T03:59:44;9.60;99.90
4530;DHT22;2277;51.626;7.516;2024-02-14T04:02:10;9.60;99.90
4530;DHT22;2277;51.626;7.516;2024-02-14T04:04:37;9.70;99.90
4530;DHT22;2277;51.626;7.516;2024-02-14T04:07:04;9.70;99.90
4530;DHT22;2277;51.626;7.516;2024-02-14T04:09:29;9.70;99.90
4530;DHT22;2277;51.626;7.516;2024-02-14T04:11:55;9.70;99.90
4530;DHT22;2277;51.626;7.516;2024-02-14T04:14:20;9.70;99.90
4530;DHT22;2277;51.626;7.516;2024-02-14T04:16:46;9.60;99.90
4530;DHT22;2277;51.626;7.516;2024-02-14T04:19:12;9.70;99.90
4530;DHT22;2277;51.626;7.516;2024-02-14T04:21:38;9.60;99.90
4530;DHT22;2277;51.626;7.516;2024-02-14T04:24:04;9.60;99.90
4530;DHT22;2277;51.626;7.516;2024-02-14T04:26:30;9.60;99.90
4530;DHT22;2277;51.626;7.516;2024-02-14T04:28:55;9.60;99.90
4530;DHT22;2277;51.626;7.516;2024-02-14T04:31:21;9.60;99.90
4530;DHT22;2277;51.626;7.516;2024-02-14T04:33:47;9.60;99.90
4530;DHT22;2277;51.626;7.516;2024-02-14T04:36:20;9.70;99.90
4530;DHT22;2277;51.626;7.516;2024-02-14T04:38:48;9.60;99.90
4530;DHT22;2277;51.626;7.516;2024-02-14T04:41:14;9.70;99.90
4530;DHT22;2277;51.626;7.516;2024-02-14T04:43:40;9.70;99.90
4530;DHT22;2277;51.626;7.516;2024-02-14T04:46:06;9.70;99.90
4530;DHT22;2277;51.626;7.516;2024-02-14T04:48:35;9.70;99.90
4530;DHT22;2277;51.626;7.516;2024-02-14T04:51:02;9.80;99.90
4530;DHT22;2277;51.626;7.516;2024-02-14T04:53:27;9.80;99.90
4530;DHT22;2277;51.626;7.516;2024-02-14T04:55:53;9.80;99.90
4530;DHT22;2277;51.626;7.516;2024-02-14T04:58:19;9.80;99.90
4530;DHT22;2277;51.626;7.516;2024-02-14T05:00:45;9.80;99.90
4530;DHT22;2277;51.626;7.516;2024-02-14T05:03:11;9.80;99.90
4530;DHT22;2277;51.626;7.516;2024-02-14T05:05:37;9.80;99.90
4530;DHT22;2277;51.626;7.516;2024-02-14T05:08:03;9.80;99.90
4530;DHT22;2277;51.626;7.516;2024-02-14T05:10:29;9.80;99.90
4530;DHT22;2277;51.626;7.516;2024-02-14T05:12:55;9.80;99.90
4530;DHT22;2277;51.626;7.516;2024-02-14T05:15:20;9.80;99.90
4530;DHT22;2277;51.626;7.516;2024-02-14T05:17:46;9.80;99.90
4530;DHT22;2277;51.626;7.516;2024-02-14T05:20:12;9.80;99.90
4530;DHT22;2277;51.626;7.516;2024-02-14T05:22:38;9.80;99.90
4530;DHT22;2277;51.626;7.516;2024-02-14T05:25:04;9.80;99.90
4530;DHT22;2277;51.626;7.516;2024-02-14T05:27:33;9.90;99.90
4530;DHT22;2277;51.626;7.516;2024-02-14T05:29:58;9.80;99.90
4530;DHT22;2277;51.626;7.516;2024-02-14T05:32:24;9.90;99.90
4530;DHT22;2277;51.626;7.516;2024-02-14T05:34:51;9.90;99.90
4530;DHT22;2277;51.626;7.516;2024-02-14T05:37:16;9.90;99.90
4530;DHT22;2277;51.626;7.516;2024-02-14T05:39:42;9.90;99.90
4530;DHT22;2277;51.626;7.516;2024-02-14T05:42:08;10.00;99.90
4530;DHT22;2277;51.626;7.516;2024-02-14T05:44:34;10.00;99.90
4530;DHT22;2277;51.626;7.516;2024-02-14T05:46:59;10.00;99.90
4530;DHT22;2277;51.626;7.516;2024-02-14T05:49:25;9.90;99.90
4530;DHT22;2277;51.626;7.516;2024-02-14T05:51:51;9.90;99.90
4530;DHT22;2277;51.626;7.516;2024-02-14T05:54:19;10.00;99.90
4530;DHT22;2277;51.626;7.516;2024-02-14T05:56:45;10.00;99.90
4530;DHT22;2277;51.626;7.516;2024-02-14T05:59:11;10.10;99.90
4530;DHT22;2277;51.626;7.516;2024-02-14T06:01:36;10.10;99.90
4530;DHT22;2277;51.626;7.516;2024-02-14T06:04:02;10.10;99.90
4530;DHT22;2277;51.626;7.516;2024-02-14T06:06:28;10.10;99.90
4530;DHT22;2277;51.626;7.516;2024-02-14T06:08:53;10.10;99.90
4530;DHT22;2277;51.626;7.516;2024-02-14T06:11:20;10.20;99.90
4530;DHT22;2277;51.626;7.516;2024-02-14T06:13:47;10.20;99.90
4530;DHT22;2277;51.626;7.516;2024-02-14T06:16:13;10.10;99.90
4530;DHT22;2277;51.626;7.516;2024-02-14T06:18:39;10.20;99.90
4530;DHT22;2277;51.626;7.516;2024-02-14T06:21:05;10.20;99.90
4530;DHT22;2277;51.626;7.516;2024-02-14T06:23:31;10.20;99.90
4530;DHT22;2277;51.626;7.516;2024-02-14T06:25:58;10.20;99.90
4530;DHT22;2277;51.626;7.516;2024-02-14T06:28:24;10.20;99.90
4530;DHT22;2277;51.626;7.516;2024-02-14T06:30:49;10.20;99.90
4530;DHT22;2277;51.626;7.516;2024-02-14T06:33:15;10.20;99.90
4530;DHT22;2277;51.626;7.516;2024-02-14T06:35:41;10.20;99.90
4530;DHT22;2277;51.626;7.516;2024-02-14T06:38:06;10.20;99.90
4530;DHT22;2277;51.626;7.516;2024-02-14T06:40:32;10.30;99.90
4530;DHT22;2277;51.626;7.516;2024-02-14T06:42:58;10.30;99.90
4530;DHT22;2277;51.626;7.516;2024-02-14T06:45:29;10.20;99.90
4530;DHT22;2277;51.626;7.516;2024-02-14T06:47:54;10.30;99.90
4530;DHT22;2277;51.626;7.516;2024-02-14T06:50:20;10.20;99.90
4530;DHT22;2277;51.626;7.516;2024-02-14T06:52:46;10.30;99.90
4530;DHT22;2277;51.626;7.516;2024-02-14T06:55:11;10.30;99.90
4530;DHT22;2277;51.626;7.516;2024-02-14T06:57:38;10.20;99.90
4530;DHT22;2277;51.626;7.516;2024-02-14T07:00:05;10.20;99.90
4530;DHT22;2277;51.626;7.516;2024-02-14T07:02:32;10.10;99.90
4530;DHT22;2277;51.626;7.516;2024-02-14T07:04:57;10.30;99.90
4530;DHT22;2277;51.626;7.516;2024-02-14T07:07:23;10.20;99.90
4530;DHT22;2277;51.626;7.516;2024-02-14T07:09:48;10.30;99.90
4530;DHT22;2277;51.626;7.516;2024-02-14T07:12:14;10.30;99.90
4530;DHT22;2277;51.626;7.516;2024-02-14T07:14:39;10.40;99.90
4530;DHT22;2277;51.626;7.516;2024-02-14T07:17:06;10.40;99.90
4530;DHT22;2277;51.626;7.516;2024-02-14T07:19:31;10.40;99.90
4530;DHT22;2277;51.626;7.516;2024-02-14T07:21:57;10.40;99.90
4530;DHT22;2277;51.626;7.516;2024-02-14T07:24:23;10.40;99.90
4530;DHT22;2277;51.626;7.516;2024-02-14T07:26:48;10.40;99.90
4530;DHT22;2277;51.626;7.516;2024-02-14T07:29:14;10.40;99.90
4530;DHT22;2277;51.626;7.516;2024-02-14T07:31:39;10.40;99.90
4530;DHT22;2277;51.626;7.516;2024-02-14T07:34:05;10.30;99.90
4530;DHT22;2277;51.626;7.516;2024-02-14T07:36:32;10.20;99.90
4530;DHT22;2277;51.626;7.516;2024-02-14T07:38:57;10.30;99.90
4530;DHT22;2277;51.626;7.516;2024-02-14T07:41:23;10.30;99.90
4530;DHT22;2277;51.626;7.516;2024-02-14T07:43:49;10.30;99.90
4530;DHT22;2277;51.626;7.516;2024-02-14T07:46:19;10.30;99.90
4530;DHT22;2277;51.626;7.516;2024-02-14T07:48:44;10.30;99.90
4530;DHT22;2277;51.626;7.516;2024-02-14T07:51:11;10.40;99.90
4530;DHT22;2277;51.626;7.516;2024-02-14T07:53:36;10.40;99.90
4530;DHT22;2277;51.626;7.516;2024-02-14T07:56:02;10.30;99.90
4530;DHT22;2277;51.626;7.516;2024-02-14T07:58:28;10.30;99.90
4530;DHT22;2277;51.626;7.516;2024-02-14T08:00:53;10.30;99.90
4530;DHT22;2277;51.626;7.516;2024-02-14T08:03:19;10.30;99.90
4530;DHT22;2277;51.626;7.516;2024-02-14T08:05:44;10.30;99.90
4530;DHT22;2277;51.626;7.516;2024-02-14T08:08:10;10.40;99.90
4530;DHT22;2277;51.626;7.516;2024-02-14T08:10:36;10.40;99.90
4530;DHT22;2277;51.626;7.516;2024-02-14T08:13:01;10.50;99.90
4530;DHT22;2277;51.626;7.516;2024-02-14T08:15:30;10.40;99.90
4530;DHT22;2277;51.626;7.516;2024-02-14T08:17:55;10.40;99.90
4530;DHT22;2277;51.626;7.516;2024-02-14T08:20:22;10.40;99.90
4530;DHT22;2277;51.626;7.516;2024-02-14T08:22:48;10.40;99.90
4530;DHT22;2277;51.626;7.516;2024-02-14T08:25:14;10.40;99.90
4530;DHT22;2277;51.626;7.516;2024-02-14T08:27:40;10.50;99.90
4530;DHT22;2277;51.626;7.516;2024-02-14T08:30:06;10.50;99.90
4530;DHT22;2277;51.626;7.516;2024-02-14T08:32:33;10.50;99.90
4530;DHT22;2277;51.626;7.516;2024-02-14T08:34:59;10.60;99.90
4530;DHT22;2277;51.626;7.516;2024-02-14T08:37:25;10.40;99.90
4530;DHT22;2277;51.626;7.516;2024-02-14T08:39:50;10.60;99.90
4530;DHT22;2277;51.626;7.516;2024-02-14T08:42:16;10.50;99.90
4530;DHT22;2277;51.626;7.516;2024-02-14T08:44:42;10.50;99.90
4530;DHT22;2277;51.626;7.516;2024-02-14T08:47:07;10.70;99.90
4530;DHT22;2277;51.626;7.516;2024-02-14T08:49:34;10.70;99.90
4530;DHT22;2277;51.626;7.516;2024-02-14T08:52:00;10.60;99.90
4530;DHT22;2277;51.626;7.516;2024-02-14T08:54:25;10.60;99.90
4530;DHT22;2277;51.626;7.516;2024-02-14T08:56:52;10.60;99.90
4530;DHT22;2277;51.626;7.516;2024-02-14T08:59:21;10.50;99.90
4530;DHT22;2277;51.626;7.516;2024-02-14T09:01:47;10.60;99.90
4530;DHT22;2277;51.626;7.516;2024-02-14T09:04:13;10.60;99.90
4530;DHT22;2277;51.626;7.516;2024-02-14T09:06:39;10.70;99.90
4530;DHT22;2277;51.626;7.516;2024-02-14T09:09:06;10.80;99.90
4530;DHT22;2277;51.626;7.516;2024-02-14T09:11:32;10.80;99.90
4530;DHT22;2277;51.626;7.516;2024-02-14T09:13:58;10.80;99.90
4530;DHT22;2277;51.626;7.516;2024-02-14T09:16:30;10.80;99.90
4530;DHT22;2277;51.626;7.516;2024-02-14T09:18:56;10.80;99.90
4530;DHT22;2277;51.626;7.516;2024-02-14T09:21:23;10.80;99.90
4530;DHT22;2277;51.626;7.516;2024-02-14T09:23:48;10.90;99.90
4530;DHT22;2277;51.626;7.516;2024-02-14T09:26:14;10.90;99.90
4530;DHT22;2277;51.626;7.516;2024-02-14T09:28:42;11.00;99.90
4530;DHT22;2277;51.626;7.516;2024-02-14T09:31:08;11.00;99.90
4530;DHT22;2277;51.626;7.516;2024-02-14T09:33:36;11.10;99.90
4530;DHT22;2277;51.626;7.516;2024-02-14T09:36:03;11.00;99.90
4530;DHT22;2277;51.626;7.516;2024-02-14T09:38:29;11.10;99.90
4530;DHT22;2277;51.626;7.516;2024-02-14T09:41:00;11.20;99.90
4530;DHT22;2277;51.626;7.516;2024-02-14T09:43:35;11.10;99.90
4530;DHT22;2277;51.626;7.516;2024-02-14T09:46:02;11.20;99.90
4530;DHT22;2277;51.626;7.516;2024-02-14T09:48:30;11.10;99.90
4530;DHT22;2277;51.626;7.516;2024-02-14T09:50:56;11.20;99.90
4530;DHT22;2277;51.626;7.516;2024-02-14T09:53:23;11.20;99.90
4530;DHT22;2277;51.626;7.516;2024-02-14T09:55:49;11.30;99.90
4530;DHT22;2277;51.626;7.516;2024-02-14T09:58:17;11.30;99.90
4530;DHT22;2277;51.626;7.516;2024-02-14T10:00:42;11.30;99.90
4530;DHT22;2277;51.626;7.516;2024-02-14T10:03:08;11.30;99.90
4530;DHT22;2277;51.626;7.516;2024-02-14T10:05:35;11.40;99.90
4530;DHT22;2277;51.626;7.516;2024-02-14T10:08:01;11.30;99.90
4530;DHT22;2277;51.626;7.516;2024-02-14T10:10:27;11.40;99.90
4530;DHT22;2277;51.626;7.516;2024-02-14T10:12:55;11.40;99.90
4530;DHT22;2277;51.626;7.516;2024-02-14T10:15:22;11.40;99.90
4530;DHT22;2277;51.626;7.516;2024-02-14T10:17:48;11.40;99.90
4530;DHT22;2277;51.626;7.516;2024-02-14T10:20:17;11.40;99.90
4530;DHT22;2277;51.626;7.516;2024-02-14T10:22:43;11.50;99.90
4530;DHT22;2277;51.626;7.516;2024-02-14T10:25:10;11.50;99.90
4530;DHT22;2277;51.626;7.516;2024-02-14T10:27:39;11.50;99.90
4530;DHT22;2277;51.626;7.516;2024-02-14T10:30:08;11.50;99.90
4530;DHT22;2277;51.626;7.516;2024-02-14T10:32:44;11.40;99.90
4530;DHT22;2277;51.626;7.516;2024-02-14T10:35:13;11.40;99.90
4530;DHT22;2277;51.626;7.516;2024-02-14T10:37:39;11.40;99.90
4530;DHT22;2277;51.626;7.516;2024-02-14T10:40:05;11.40;99.90
4530;DHT22;2277;51.626;7.516;2024-02-14T10:42:32;11.40;99.90
4530;DHT22;2277;51.626;7.516;2024-02-14T10:44:58;11.30;99.90
4530;DHT22;2277;51.626;7.516;2024-02-14T10:47:29;11.30;99.90
4530;DHT22;2277;51.626;7.516;2024-02-14T10:50:00;11.40;99.90
4530;DHT22;2277;51.626;7.516;2024-02-14T10:52:32;11.40;99.90
4530;DHT22;2277;51.626;7.516;2024-02-14T10:55:01;11.40;99.90
4530;DHT22;2277;51.626;7.516;2024-02-14T10:57:27;11.40;99.90
4530;DHT22;2277;51.626;7.516;2024-02-14T10:59:54;11.30;99.90
4530;DHT22;2277;51.626;7.516;2024-02-14T11:02:21;11.30;99.90
4530;DHT22;2277;51.626;7.516;2024-02-14T11:04:47;11.40;99.90
4530;DHT22;2277;51.626;7.516;2024-02-14T11:07:13;11.50;99.90
4530;DHT22;2277;51.626;7.516;2024-02-14T11:09:42;11.50;99.90
4530;DHT22;2277;51.626;7.516;2024-02-14T11:12:08;11.50;99.90
4530;DHT22;2277;51.626;7.516;2024-02-14T11:14:35;11.60;99.90
4530;DHT22;2277;51.626;7.516;2024-02-14T11:17:10;11.60;99.90
4530;DHT22;2277;51.626;7.516;2024-02-14T11:19:36;11.60;99.90
4530;DHT22;2277;51.626;7.516;2024-02-14T11:22:12;11.60;99.90
4530;DHT22;2277;51.626;7.516;2024-02-14T11:24:40;11.60;99.90
4530;DHT22;2277;51.626;7.516;2024-02-14T11:27:10;11.60;99.90
4530;DHT22;2277;51.626;7.516;2024-02-14T11:29:39;11.70;99.90
4530;DHT22;2277;51.626;7.516;2024-02-14T11:32:06;11.70;99.90
4530;DHT22;2277;51.626;7.516;2024-02-14T11:34:34;11.60;99.90
4530;DHT22;2277;51.626;7.516;2024-02-14T11:36:59;11.60;99.90
4530;DHT22;2277;51.626;7.516;2024-02-14T11:39:25;11.80;99.90
4530;DHT22;2277;51.626;7.516;2024-02-14T11:41:51;11.80;99.90
4530;DHT22;2277;51.626;7.516;2024-02-14T11:44:19;11.80;99.90
4530;DHT22;2277;51.626;7.516;2024-02-14T11:46:48;11.80;99.90
4530;DHT22;2277;51.626;7.516;2024-02-14T11:49:14;11.80;99.90
4530;DHT22;2277;51.626;7.516;2024-02-14T11:51:39;11.80;99.90
4530;DHT22;2277;51.626;7.516;2024-02-14T11:54:07;11.80;99.90
4530;DHT22;2277;51.626;7.516;2024-02-14T11:56:37;11.80;99.90
4530;DHT22;2277;51.626;7.516;2024-02-14T11:59:05;11.90;99.90
4530;DHT22;2277;51.626;7.516;2024-02-14T12:01:32;11.80;99.90
4530;DHT22;2277;51.626;7.516;2024-02-14T12:04:00;11.80;99.90
4530;DHT22;2277;51.626;7.516;2024-02-14T12:06:29;11.80;99.90
4530;DHT22;2277;51.626;7.516;2024-02-14T12:08:58;11.90;99.90
4530;DHT22;2277;51.626;7.516;2024-02-14T12:11:27;11.90;99.90
4530;DHT22;2277;51.626;7.516;2024-02-14T12:13:54;11.90;99.90
4530;DHT22;2277;51.626;7.516;2024-02-14T12:16:20;11.80;99.90
4530;DHT22;2277;51.626;7.516;2024-02-14T12:18:46;11.80;99.90
4530;DHT22;2277;51.626;7.516;2024-02-14T12:21:12;12.00;99.90
4530;DHT22;2277;51.626;7.516;2024-02-14T12:23:38;12.10;99.90
4530;DHT22;2277;51.626;7.516;2024-02-14T12:26:04;12.10;99.90
4530;DHT22;2277;51.626;7.516;2024-02-14T12:28:31;12.10;99.90
4530;DHT22;2277;51.626;7.516;2024-02-14T12:30:57;12.20;99.90
4530;DHT22;2277;51.626;7.516;2024-02-14T12:33:26;12.20;99.90
4530;DHT22;2277;51.626;7.516;2024-02-14T12:35:57;12.30;99.90
4530;DHT22;2277;51.626;7.516;2024-02-14T12:38:23;12.20;99.90
4530;DHT22;2277;51.626;7.516;2024-02-14T12:40:49;12.30;99.90
4530;DHT22;2277;51.626;7.516;2024-02-14T12:43:15;12.40;99.90
4530;DHT22;2277;51.626;7.516;2024-02-14T12:45:42;12.40;99.90
4530;DHT22;2277;51.626;7.516;2024-02-14T12:48:09;12.30;99.90
4530;DHT22;2277;51.626;7.516;2024-02-14T12:50:36;12.40;99.90
4530;DHT22;2277;51.626;7.516;2024-02-14T12:53:03;12.40;99.90
4530;DHT22;2277;51.626;7.516;2024-02-14T12:55:29;12.40;99.90
4530;DHT22;2277;51.626;7.516;2024-02-14T12:57:55;12.40;99.90
4530;DHT22;2277;51.626;7.516;2024-02-14T13:00:21;12.40;99.90
4530;DHT22;2277;51.626;7.516;2024-02-14T13:02:48;12.50;99.90
4530;DHT22;2277;51.626;7.516;2024-02-14T13:05:14;12.60;99.90
4530;DHT22;2277;51.626;7.516;2024-02-14T13:07:40;12.50;99.90
4530;DHT22;2277;51.626;7.516;2024-02-14T13:10:09;12.50;99.90
4530;DHT22;2277;51.626;7.516;2024-02-14T13:12:38;12.60;99.90
4530;DHT22;2277;51.626;7.516;2024-02-14T13:15:05;12.60;99.90
4530;DHT22;2277;51.626;7.516;2024-02-14T13:17:31;12.60;99.90
4530;DHT22;2277;51.626;7.516;2024-02-14T13:19:56;12.60;99.90
4530;DHT22;2277;51.626;7.516;2024-02-14T13:22:25;12.70;99.90
4530;DHT22;2277;51.626;7.516;2024-02-14T13:24:51;12.70;99.90
4530;DHT22;2277;51.626;7.516;2024-02-14T13:27:16;12.70;99.90
4530;DHT22;2277;51.626;7.516;2024-02-14T13:29:42;12.70;99.90
4530;DHT22;2277;51.626;7.516;2024-02-14T13:32:08;12.70;99.90
4530;DHT22;2277;51.626;7.516;2024-02-14T13:34:34;12.70;99.90
4530;DHT22;2277;51.626;7.516;2024-02-14T13:37:00;12.70;99.90
4530;DHT22;2277;51.626;7.516;2024-02-14T13:39:26;12.80;99.90
4530;DHT22;2277;51.626;7.516;2024-02-14T13:41:51;12.70;99.90
4530;DHT22;2277;51.626;7.516;2024-02-14T13:44:17;12.80;99.90
4530;DHT22;2277;51.626;7.516;2024-02-14T13:46:44;12.70;99.90
4530;DHT22;2277;51.626;7.516;2024-02-14T13:49:16;12.80;99.90
4530;DHT22;2277;51.626;7.516;2024-02-14T13:51:47;12.70;99.90
4530;DHT22;2277;51.626;7.516;2024-02-14T13:54:13;12.70;99.90
4530;DHT22;2277;51.626;7.516;2024-02-14T13:56:38;12.70;99.90
4530;DHT22;2277;51.626;7.516;2024-02-14T13:59:04;12.60;99.90
4530;DHT22;2277;51.626;7.516;2024-02-14T14:01:29;12.60;99.90
4530;DHT22;2277;51.626;7.516;2024-02-14T14:03:55;12.60;99.90
4530;DHT22;2277;51.626;7.516;2024-02-14T14:06:21;12.50;99.90
4530;DHT22;2277;51.626;7.516;2024-02-14T14:08:50;12.60;99.90
4530;DHT22;2277;51.626;7.516;2024-02-14T14:11:15;12.50;99.90
4530;DHT22;2277;51.626;7.516;2024-02-14T14:13:41;12.50;99.90
4530;DHT22;2277;51.626;7.516;2024-02-14T14:16:07;12.50;99.90
4530;DHT22;2277;51.626;7.516;2024-02-14T14:18:32;12.40;99.90
4530;DHT22;2277;51.626;7.516;2024-02-14T14:20:58;12.50;99.90
4530;DHT22;2277;51.626;7.516;2024-02-14T14:23:24;12.50;99.90
4530;DHT22;2277;51.626;7.516;2024-02-14T14:25:49;12.50;99.90
4530;DHT22;2277;51.626;7.516;2024-02-14T14:28:15;12.50;99.90
4530;DHT22;2277;51.626;7.516;2024-02-14T14:30:41;12.50;99.90
4530;DHT22;2277;51.626;7.516;2024-02-14T14:33:07;12.60;99.90
4530;DHT22;2277;51.626;7.516;2024-02-14T14:35:36;12.60;99.90
4530;DHT22;2277;51.626;7.516;2024-02-14T14:38:02;12.60;99.90
4530;DHT22;2277;51.626;7.516;2024-02-14T14:40:29;12.50;99.90
4530;DHT22;2277;51.626;7.516;2024-02-14T14:42:54;12.60;99.90
4530;DHT22;2277;51.626;7.516;2024-02-14T14:45:20;12.60;99.90
4530;DHT22;2277;51.626;7.516;2024-02-14T14:47:45;12.50;99.90
4530;DHT22;2277;51.626;7.516;2024-02-14T14:50:11;12.50;99.90
4530;DHT22;2277;51.626;7.516;2024-02-14T14:52:38;12.50;99.90
4530;DHT22;2277;51.626;7.516;2024-02-14T14:55:05;12.60;99.90
4530;DHT22;2277;51.626;7.516;2024-02-14T14:57:30;12.50;99.90
4530;DHT22;2277;51.626;7.516;2024-02-14T14:59:56;12.60;99.90
4530;DHT22;2277;51.626;7.516;2024-02-14T15:02:22;12.50;99.90
4530;DHT22;2277;51.626;7.516;2024-02-14T15:04:47;12.50;99.90
4530;DHT22;2277;51.626;7.516;2024-02-14T15:07:13;12.50;99.90
4530;DHT22;2277;51.626;7.516;2024-02-14T15:09:42;12.50;99.90
4530;DHT22;2277;51.626;7.516;2024-02-14T15:12:08;12.50;99.90
4530;DHT22;2277;51.626;7.516;2024-02-14T15:14:33;12.50;99.90
4530;DHT22;2277;51.626;7.516;2024-02-14T15:16:59;12.50;99.90
4530;DHT22;2277;51.626;7.516;2024-02-14T15:19:25;12.50;99.90
4530;DHT22;2277;51.626;7.516;2024-02-14T15:21:51;12.40;99.90
4530;DHT22;2277;51.626;7.516;2024-02-14T15:24:17;12.50;99.90
4530;DHT22;2277;51.626;7.516;2024-02-14T15:26:42;12.30;99.90
4530;DHT22;2277;51.626;7.516;2024-02-14T15:29:25;12.40;99.90
4530;DHT22;2277;51.626;7.516;2024-02-14T15:32:09;12.30;99.90
4530;DHT22;2277;51.626;7.516;2024-02-14T15:34:53;12.10;99.90
4530;DHT22;2277;51.626;7.516;2024-02-14T15:37:19;12.20;99.90
4530;DHT22;2277;51.626;7.516;2024-02-14T15:39:45;12.20;99.90
4530;DHT22;2277;51.626;7.516;2024-02-14T15:42:10;12.20;99.90
4530;DHT22;2277;51.626;7.516;2024-02-14T15:44:36;12.10;99.90
4530;DHT22;2277;51.626;7.516;2024-02-14T15:47:02;12.10;99.90
4530;DHT22;2277;51.626;7.516;2024-02-14T15:49:28;12.20;99.90
4530;DHT22;2277;51.626;7.516;2024-02-14T15:51:53;12.20;99.90
4530;DHT22;2277;51.626;7.516;2024-02-14T15:54:19;12.00;99.90
4530;DHT22;2277;51.626;7.516;2024-02-14T15:56:46;12.10;99.90
4530;DHT22;2277;51.626;7.516;2024-02-14T15:59:12;12.00;99.90
4530;DHT22;2277;51.626;7.516;2024-02-14T16:01:41;12.10;99.90